createdAt,value
2022-09-04T00:05:20.432Z,2.13
2022-09-04T00:10:31.059Z,1.80
2022-09-04T00:15:39.274Z,2.17
2022-09-04T00:20:50.493Z,2.17
2022-09-04T00:26:02.960Z,2.30
2022-09-04T00:31:39.138Z,1.80
2022-09-04T00:36:49.922Z,2.20
2022-09-04T00:42:16.406Z,1.33
2022-09-04T00:47:27.185Z,2.38
2022-09-04T00:52:58.165Z,1.98
2022-09-04T00:58:23.997Z,2.47
2022-09-04T01:03:38.781Z,1.90
2022-09-04T01:09:03.316Z,2.60
2022-09-04T01:14:22.755Z,1.90
2022-09-04T01:19:50.946Z,2.50
2022-09-04T01:25:26.635Z,2.50
2022-09-04T01:30:37.495Z,2.78
2022-09-04T01:36:03.836Z,2.50
2022-09-04T01:41:24.297Z,2.58
2022-09-04T01:46:47.714Z,1.95
2022-09-04T01:52:04.977Z,2.20
2022-09-04T01:57:15.773Z,2.42
2022-09-04T02:02:34.677Z,2.83
2022-09-04T02:07:43.284Z,3.10
2022-09-04T02:12:58.368Z,2.05
2022-09-04T02:18:37.712Z,2.72
2022-09-04T02:24:14.100Z,2.28
2022-09-04T02:29:23.446Z,2.63
2022-09-04T02:34:30.766Z,2.30
2022-09-04T02:39:45.850Z,2.85
2022-09-04T02:45:12.028Z,2.00
2022-09-04T02:50:21.420Z,3.00
2022-09-04T02:55:44.481Z,2.83
2022-09-04T03:06:06.880Z,2.75
2022-09-04T03:11:30.180Z,2.58
2022-09-04T03:17:03.546Z,2.78
2022-09-04T03:22:14.420Z,3.35
2022-09-04T03:27:18.902Z,2.90
2022-09-04T03:32:42.843Z,2.90
2022-09-04T03:38:14.452Z,3.13
2022-09-04T03:43:16.126Z,2.30
2022-09-04T03:48:48.599Z,3.42
2022-09-04T03:54:09.088Z,2.73
2022-09-04T03:59:38.058Z,2.85
2022-09-04T04:04:57.739Z,3.30
2022-09-04T04:10:25.176Z,3.20
2022-09-04T04:15:45.380Z,3.90
2022-09-04T04:21:28.254Z,3.13
2022-09-04T04:27:04.050Z,3.92
2022-09-04T04:32:30.083Z,2.83
2022-09-04T04:37:59.338Z,3.10
2022-09-04T04:43:31.036Z,2.60
2022-09-04T04:49:12.919Z,2.65
2022-09-04T04:54:42.711Z,2.85
2022-09-04T05:00:27.380Z,2.22
2022-09-04T05:05:53.982Z,2.90
2022-09-04T05:11:04.082Z,2.70
2022-09-04T05:16:26.503Z,2.85
2022-09-04T05:21:49.157Z,2.63
2022-09-04T05:27:20.325Z,2.90
2022-09-04T05:32:38.147Z,3.20
2022-09-04T05:37:56.399Z,3.03
2022-09-04T05:43:26.088Z,2.58
2022-09-04T05:49:07.025Z,2.55
2022-09-04T05:54:33.403Z,2.90
2022-09-04T05:59:42.531Z,2.67
2022-09-04T06:05:08.563Z,3.33
2022-09-04T06:10:22.432Z,3.08
2022-09-04T06:15:37.443Z,3.28
2022-09-04T06:20:44.561Z,3.40
2022-09-04T06:26:15.146Z,3.60
2022-09-04T06:31:19.979Z,3.60
2022-09-04T06:36:49.805Z,4.38
2022-09-04T06:42:09.524Z,3.90
2022-09-04T06:47:25.763Z,3.92
2022-09-04T06:52:42.067Z,3.88
2022-09-04T06:57:47.069Z,4.20
2022-09-04T07:03:07.009Z,4.80
2022-09-04T07:08:30.899Z,4.43
2022-09-04T07:13:56.537Z,4.97
2022-09-04T07:19:22.734Z,4.80
2022-09-04T07:24:52.608Z,4.80
2022-09-04T07:30:14.809Z,5.75
2022-09-04T07:35:34.531Z,5.70
2022-09-04T07:40:44.601Z,5.55
2022-09-04T07:45:53.928Z,5.55
2022-09-04T07:51:33.346Z,5.63
2022-09-04T07:56:53.844Z,5.82
2022-09-04T08:02:14.414Z,5.18
2022-09-04T08:07:59.150Z,5.72
2022-09-04T08:13:39.695Z,4.40
2022-09-04T08:19:07.284Z,5.82
2022-09-04T08:24:32.321Z,4.93
2022-09-04T08:29:47.483Z,5.38
2022-09-04T08:35:01.921Z,5.63
2022-09-04T08:40:34.764Z,4.95
2022-09-04T08:51:26.620Z,4.85
2022-09-04T08:57:07.277Z,5.82
2022-09-04T09:02:30.451Z,6.93
2022-09-04T09:07:59.245Z,8.25
2022-09-04T09:13:42.538Z,6.57
2022-09-04T09:18:47.252Z,5.63
2022-09-04T09:24:25.993Z,6.22
2022-09-04T09:29:59.881Z,6.65
2022-09-04T09:35:06.894Z,6.43
2022-09-04T09:40:31.742Z,6.70
2022-09-04T09:45:46.772Z,6.70
2022-09-04T09:51:02.583Z,6.75
2022-09-04T09:56:35.065Z,6.38
2022-09-04T10:01:46.088Z,6.63
2022-09-04T10:07:27.094Z,6.65
2022-09-04T10:13:13.560Z,6.63
2022-09-04T10:18:45.837Z,6.03
2022-09-04T10:23:50.385Z,5.72
2022-09-04T10:29:20.927Z,4.63
2022-09-04T10:34:50.909Z,3.40
2022-09-04T10:40:34.525Z,4.18
2022-09-04T10:45:45.074Z,3.15
2022-09-04T10:51:20.949Z,3.00
2022-09-04T10:56:36.378Z,2.78
2022-09-04T11:02:11.652Z,2.80
2022-09-04T11:07:29.787Z,2.83
2022-09-04T11:12:55.955Z,2.08
2022-09-04T11:18:25.387Z,2.00
2022-09-04T11:23:48.599Z,2.10
2022-09-04T11:29:08.916Z,1.92
2022-09-04T11:34:44.465Z,2.00
2022-09-04T11:40:03.365Z,1.52
2022-09-04T11:45:29.065Z,1.65
2022-09-04T11:50:36.815Z,1.80
2022-09-04T11:55:59.865Z,1.70
2022-09-04T12:01:16.132Z,2.40
2022-09-04T12:06:56.306Z,1.60
2022-09-04T12:12:12.349Z,1.48
2022-09-04T12:17:50.092Z,1.27
2022-09-04T12:23:12.450Z,1.33
2022-09-04T12:28:48.304Z,1.60
2022-09-04T12:34:05.448Z,1.58
2022-09-04T12:39:27.037Z,1.38
2022-09-04T12:44:43.929Z,1.45
2022-09-04T12:50:01.171Z,1.50
2022-09-04T12:55:33.371Z,1.20
2022-09-04T13:01:00.023Z,1.40
2022-09-04T13:06:23.378Z,1.38
2022-09-04T13:11:31.366Z,1.20
2022-09-04T13:16:41.873Z,1.20
2022-09-04T13:22:14.729Z,1.38
2022-09-04T13:27:34.837Z,1.10
2022-09-04T13:32:53.539Z,1.10
2022-09-04T13:38:15.222Z,1.20
2022-09-04T13:43:47.902Z,1.17
2022-09-04T13:49:16.409Z,1.10
2022-09-04T13:54:33.262Z,1.20
2022-09-04T13:59:35.726Z,1.10
2022-09-04T14:04:45.074Z,1.15
2022-09-04T14:09:50.148Z,1.17
2022-09-04T14:14:59.582Z,1.00
2022-09-04T14:20:31.398Z,1.17
2022-09-04T14:25:45.105Z,1.03
2022-09-04T14:31:22.934Z,1.10
2022-09-04T14:36:45.833Z,1.08
2022-09-04T14:41:54.496Z,1.00
2022-09-04T14:47:03.228Z,1.40
2022-09-04T14:52:14.972Z,0.93
2022-09-04T14:57:51.487Z,1.25
2022-09-04T15:03:12.067Z,1.10
2022-09-04T15:08:27.087Z,1.10
2022-09-04T15:13:28.921Z,1.70
2022-09-04T15:18:41.931Z,1.38
2022-09-04T15:23:52.916Z,1.40
2022-09-04T15:29:16.203Z,1.00
2022-09-04T15:34:24.494Z,1.10
2022-09-04T15:39:32.753Z,1.15
2022-09-04T15:44:41.242Z,1.00
2022-09-04T15:49:50.422Z,1.00
2022-09-04T15:55:11.347Z,1.00
2022-09-04T16:00:15.707Z,1.20
2022-09-04T16:05:45.075Z,1.10
2022-09-04T16:10:54.850Z,1.00
2022-09-04T16:16:05.593Z,1.08
2022-09-04T16:21:27.238Z,1.20
2022-09-04T16:26:33.016Z,1.08
2022-09-04T16:31:36.805Z,1.20
2022-09-04T16:36:48.193Z,1.50
2022-09-04T16:42:10.253Z,1.38
2022-09-04T16:47:37.120Z,1.40
2022-09-04T16:52:43.654Z,1.50
2022-09-04T16:58:07.520Z,1.50
2022-09-04T17:03:21.621Z,1.50
2022-09-04T17:08:39.313Z,1.73
2022-09-04T17:13:55.406Z,1.50
2022-09-04T17:18:57.352Z,1.70
2022-09-04T17:29:04.939Z,1.70
2022-09-04T17:29:44.656Z,1.90
2022-09-04T17:40:34.822Z,1.67
2022-09-04T17:41:38.039Z,1.90
2022-09-04T17:46:28.440Z,2.10
2022-09-04T17:51:34.766Z,2.10
2022-09-04T17:56:45.474Z,1.88
2022-09-04T18:02:05.028Z,2.08
2022-09-04T18:08:07.667Z,2.20
2022-09-04T18:13:36.563Z,2.33
2022-09-04T18:18:49.157Z,2.00
2022-09-04T18:24:10.136Z,2.20
2022-09-04T18:33:55.623Z,1.90
2022-09-04T18:37:25.319Z,2.40
2022-09-04T18:45:32.658Z,2.22
2022-09-04T18:50:21.914Z,2.70
2022-09-04T18:51:52.428Z,2.60
2022-09-04T18:57:01.028Z,2.30
2022-09-04T19:02:21.237Z,2.45
2022-09-04T19:07:41.039Z,2.40
2022-09-04T19:12:46.867Z,2.83
2022-09-04T19:17:55.423Z,2.42
2022-09-04T19:23:05.502Z,2.42
2022-09-04T19:28:39.430Z,2.78
2022-09-04T19:33:59.760Z,2.70
2022-09-04T19:45:56.146Z,2.83
2022-09-04T19:46:25.721Z,3.00
2022-09-04T19:53:20.030Z,3.28
2022-09-04T19:56:08.434Z,3.17
2022-09-04T20:01:20.209Z,3.35
2022-09-04T20:06:30.123Z,3.25
2022-09-04T20:11:39.477Z,3.15
2022-09-04T20:17:08.768Z,3.55
2022-09-04T20:22:45.300Z,3.30
2022-09-04T20:27:54.107Z,3.50
2022-09-04T20:33:21.565Z,3.60
2022-09-04T20:38:32.361Z,3.55
2022-09-04T20:44:03.499Z,3.72
2022-09-04T20:52:50.476Z,3.40
2022-09-04T20:54:54.172Z,3.65
2022-09-04T21:03:08.664Z,3.72
2022-09-04T21:06:06.829Z,3.75
2022-09-04T21:11:39.697Z,3.75
2022-09-04T21:16:43.927Z,3.60
2022-09-04T21:22:01.081Z,3.72
2022-09-04T21:27:14.642Z,3.55
2022-09-04T21:32:34.900Z,3.90
2022-09-04T21:37:46.606Z,3.75
2022-09-04T21:43:35.875Z,3.42
2022-09-04T21:49:26.381Z,3.30
2022-09-04T21:59:11.585Z,3.05
2022-09-04T22:02:36.346Z,3.22
2022-09-04T22:09:31.941Z,3.30
2022-09-04T22:13:33.323Z,3.40
2022-09-04T22:18:04.354Z,2.30
2022-09-04T22:23:30.769Z,3.45
2022-09-04T22:29:09.756Z,2.28
2022-09-04T22:34:39.687Z,3.22
2022-09-04T22:40:15.640Z,2.97
2022-09-04T22:45:54.577Z,2.60
2022-09-04T22:51:16.566Z,3.38
2022-09-04T22:56:52.523Z,2.50
2022-09-04T23:02:13.691Z,2.78
2022-09-04T23:11:05.690Z,2.63
2022-09-04T23:13:56.777Z,2.80
2022-09-04T23:26:36.428Z,3.10
2022-09-04T23:26:47.009Z,3.00
2022-09-04T23:30:54.785Z,3.40
2022-09-04T23:36:37.557Z,2.60
2022-09-04T23:41:48.811Z,2.90
2022-09-04T23:47:48.258Z,2.67
2022-09-04T23:53:22.100Z,2.95
2022-09-04T23:59:03.837Z,2.53
